createdAt,value
2022-11-04T00:01:25.393Z,7.77
2022-11-04T00:03:53.281Z,7.03
2022-11-04T00:06:20.200Z,7.83
2022-11-04T00:08:50.511Z,7.20
2022-11-04T00:11:36.151Z,8.13
2022-11-04T00:14:03.431Z,8.37
2022-11-04T00:16:48.719Z,7.17
2022-11-04T00:19:15.765Z,7.00
2022-11-04T00:22:01.234Z,6.07
2022-11-04T00:24:47.790Z,5.63
2022-11-04T00:27:34.996Z,5.57
2022-11-04T00:30:03.251Z,4.47
2022-11-04T00:32:50.338Z,4.90
2022-11-04T00:35:17.609Z,4.47
2022-11-04T00:37:45.305Z,4.13
2022-11-04T00:40:15.441Z,3.77
2022-11-04T00:42:44.556Z,4.00
2022-11-04T00:45:11.426Z,4.27
2022-11-04T00:47:38.225Z,4.40
2022-11-04T00:50:06.287Z,3.90
2022-11-04T00:52:33.078Z,3.80
2022-11-04T00:54:59.932Z,4.30
2022-11-04T00:57:28.136Z,3.93
2022-11-04T00:59:54.988Z,3.90
2022-11-04T01:02:22.079Z,3.30
2022-11-04T01:04:49.060Z,3.43
2022-11-04T01:07:15.873Z,3.13
2022-11-04T01:09:42.703Z,2.37
2022-11-04T01:12:09.525Z,2.90
2022-11-04T01:14:37.840Z,2.37
2022-11-04T01:17:04.665Z,2.07
2022-11-04T01:19:31.568Z,2.00
2022-11-04T01:21:58.365Z,1.50
2022-11-04T01:24:25.232Z,1.93
2022-11-04T01:26:52.093Z,1.60
2022-11-04T01:29:18.954Z,1.87
2022-11-04T01:31:47.284Z,1.57
2022-11-04T01:34:14.193Z,1.70
2022-11-04T01:36:40.985Z,1.80
2022-11-04T01:39:07.878Z,1.70
2022-11-04T01:41:35.022Z,1.97
2022-11-04T01:44:03.740Z,1.77
2022-11-04T01:46:38.121Z,1.73
2022-11-04T01:49:27.499Z,2.40
2022-11-04T01:52:00.971Z,2.07
2022-11-04T01:54:29.276Z,2.10
2022-11-04T01:56:58.201Z,2.03
2022-11-04T01:59:28.345Z,1.90
2022-11-04T02:01:55.312Z,1.90
2022-11-04T02:04:26.560Z,1.70
2022-11-04T02:06:55.295Z,1.70
2022-11-04T02:09:24.077Z,2.07
2022-11-04T02:12:09.389Z,1.97
2022-11-04T02:14:36.776Z,1.57
2022-11-04T02:17:12.929Z,1.90
2022-11-04T02:20:07.114Z,1.27
2022-11-04T02:23:02.927Z,1.50
2022-11-04T02:25:46.795Z,1.23
2022-11-04T02:28:33.194Z,1.50
2022-11-04T02:31:10.006Z,1.83
2022-11-04T02:33:45.418Z,2.07
2022-11-04T02:36:26.733Z,1.70
2022-11-04T02:38:57.154Z,1.87
2022-11-04T02:41:35.372Z,1.80
2022-11-04T02:44:12.921Z,1.83
2022-11-04T02:46:48.144Z,2.37
2022-11-04T02:49:19.655Z,1.83
2022-11-04T02:51:51.058Z,2.00
2022-11-04T02:54:23.140Z,1.73
2022-11-04T02:56:52.370Z,1.63
2022-11-04T02:59:24.118Z,1.50
2022-11-04T03:01:54.286Z,1.47
2022-11-04T03:04:27.740Z,1.60
2022-11-04T03:06:56.298Z,1.43
2022-11-04T03:09:23.930Z,1.17
2022-11-04T03:11:55.811Z,1.03
2022-11-04T03:14:27.293Z,1.30
2022-11-04T03:16:59.660Z,1.00
2022-11-04T03:19:32.360Z,1.87
2022-11-04T03:22:02.511Z,1.20
2022-11-04T03:24:31.281Z,1.37
2022-11-04T03:27:02.640Z,1.60
2022-11-04T03:29:33.575Z,1.40
2022-11-04T03:32:13.680Z,1.10
2022-11-04T03:34:40.929Z,1.20
2022-11-04T03:37:07.781Z,1.00
2022-11-04T03:39:34.675Z,1.17
2022-11-04T03:42:19.869Z,1.10
2022-11-04T03:44:49.205Z,0.90
2022-11-04T03:47:18.915Z,0.90
2022-11-04T03:49:47.279Z,1.00
2022-11-04T03:52:15.148Z,0.97
2022-11-04T03:54:42.551Z,1.00
2022-11-04T03:57:24.172Z,0.60
2022-11-04T04:00:07.007Z,0.60
2022-11-04T04:02:57.871Z,0.97
2022-11-04T04:05:27.491Z,0.80
2022-11-04T04:08:02.891Z,1.13
2022-11-04T04:10:40.651Z,0.90
2022-11-04T04:13:20.006Z,0.80
2022-11-04T04:15:52.640Z,0.90
2022-11-04T04:18:27.753Z,0.70
2022-11-04T04:20:58.015Z,0.63
2022-11-04T04:23:47.535Z,1.00
2022-11-04T04:26:35.237Z,0.63
2022-11-04T04:29:06.593Z,0.70
2022-11-04T04:31:50.844Z,1.00
2022-11-04T04:34:21.560Z,0.60
2022-11-04T04:36:54.466Z,0.80
2022-11-04T04:39:44.496Z,0.90
2022-11-04T04:42:30.056Z,1.00
2022-11-04T04:44:59.827Z,0.80
2022-11-04T04:47:30.298Z,0.90
2022-11-04T04:50:00.197Z,0.90
2022-11-04T04:52:30.392Z,0.83
2022-11-04T04:54:57.236Z,1.03
2022-11-04T04:57:24.068Z,1.10
2022-11-04T04:59:50.926Z,1.00
2022-11-04T05:02:17.867Z,0.60
2022-11-04T05:04:44.855Z,0.93
2022-11-04T05:07:13.152Z,1.30
2022-11-04T05:09:39.949Z,1.10
2022-11-04T05:12:06.739Z,1.10
2022-11-04T05:14:33.513Z,1.27
2022-11-04T05:17:00.350Z,0.87
2022-11-04T05:19:27.400Z,1.13
2022-11-04T05:21:54.229Z,1.10
2022-11-04T05:24:22.348Z,1.10
2022-11-04T05:26:49.175Z,0.80
2022-11-04T05:29:16.081Z,1.00
2022-11-04T05:31:43.374Z,0.90
2022-11-04T05:34:11.096Z,1.10
2022-11-04T05:36:38.197Z,1.00
2022-11-04T05:39:06.188Z,1.00
2022-11-04T05:41:34.963Z,1.10
2022-11-04T05:44:03.842Z,0.80
2022-11-04T05:46:30.998Z,1.10
2022-11-04T05:48:57.918Z,1.20
2022-11-04T05:51:27.023Z,1.27
2022-11-04T05:53:54.113Z,1.00
2022-11-04T05:56:21.130Z,0.73
2022-11-04T05:58:49.316Z,1.03
2022-11-04T06:01:34.630Z,0.90
2022-11-04T06:04:02.218Z,1.07
2022-11-04T06:06:31.070Z,1.50
2022-11-04T06:08:58.648Z,1.20
2022-11-04T06:11:26.740Z,1.10
2022-11-04T06:13:56.370Z,1.13
2022-11-04T06:16:23.716Z,1.30
2022-11-04T06:18:50.805Z,1.30
2022-11-04T06:21:25.312Z,1.30
2022-11-04T06:23:53.056Z,1.50
2022-11-04T06:26:23.860Z,1.37
2022-11-04T06:28:55.144Z,1.40
2022-11-04T06:31:22.077Z,3.10
2022-11-04T06:33:49.028Z,1.27
2022-11-04T06:36:16.694Z,1.37
2022-11-04T06:38:43.813Z,1.43
2022-11-04T06:41:13.165Z,1.77
2022-11-04T06:43:40.317Z,1.80
2022-11-04T06:46:26.091Z,1.63
2022-11-04T06:48:52.945Z,2.30
2022-11-04T06:51:19.843Z,1.97
2022-11-04T06:53:46.669Z,1.67
2022-11-04T06:56:13.633Z,1.50
2022-11-04T06:58:40.531Z,1.40
2022-11-04T07:01:13.712Z,1.50
2022-11-04T07:03:48.400Z,2.07
2022-11-04T07:06:15.351Z,1.50
2022-11-04T07:08:42.189Z,1.83
2022-11-04T07:11:09.082Z,1.90
2022-11-04T07:13:35.987Z,2.07
2022-11-04T07:16:05.192Z,2.00
2022-11-04T07:18:33.759Z,2.43
2022-11-04T07:21:04.448Z,2.13
2022-11-04T07:23:34.620Z,1.90
2022-11-04T07:26:02.133Z,1.70
2022-11-04T07:28:29.229Z,2.10
2022-11-04T07:30:57.889Z,2.50
2022-11-04T07:33:25.555Z,2.37
2022-11-04T07:35:57.060Z,4.13
2022-11-04T07:38:25.615Z,4.00
2022-11-04T07:40:52.676Z,3.67
2022-11-04T07:43:19.746Z,4.03
2022-11-04T07:45:47.458Z,2.93
2022-11-04T07:48:14.313Z,2.00
2022-11-04T07:50:41.234Z,2.00
2022-11-04T07:53:10.584Z,2.87
2022-11-04T07:55:43.203Z,1.77
2022-11-04T07:58:10.495Z,1.90
2022-11-04T08:00:37.329Z,1.73
2022-11-04T08:03:04.273Z,1.97
2022-11-04T08:05:31.321Z,2.00
2022-11-04T08:07:58.234Z,1.63
2022-11-04T08:10:26.575Z,1.83
2022-11-04T08:12:53.629Z,1.80
2022-11-04T08:15:20.541Z,2.00
2022-11-04T08:17:47.493Z,2.27
2022-11-04T08:20:14.582Z,1.70
2022-11-04T08:22:41.603Z,1.57
2022-11-04T08:25:12.362Z,1.40
2022-11-04T08:27:40.595Z,2.43
2022-11-04T08:30:08.850Z,1.30
2022-11-04T08:32:36.041Z,1.63
2022-11-04T08:35:03.617Z,1.70
2022-11-04T08:37:30.646Z,1.90
2022-11-04T08:39:57.560Z,1.90
2022-11-04T08:42:28.005Z,1.70
2022-11-04T08:44:56.294Z,1.80
2022-11-04T08:47:23.132Z,1.80
2022-11-04T08:49:50.506Z,2.20
2022-11-04T08:52:17.928Z,1.90
2022-11-04T08:54:45.125Z,1.90
2022-11-04T08:57:12.279Z,2.13
2022-11-04T08:59:39.179Z,1.63
2022-11-04T09:02:10.853Z,1.97
2022-11-04T09:04:37.931Z,2.33
2022-11-04T09:07:08.277Z,1.70
2022-11-04T09:09:35.999Z,1.50
2022-11-04T09:12:03.377Z,2.43
2022-11-04T09:14:31.408Z,1.60
2022-11-04T09:16:58.432Z,2.07
2022-11-04T09:19:27.022Z,1.60
2022-11-04T09:21:54.987Z,1.60
2022-11-04T09:24:23.735Z,1.63
2022-11-04T09:26:52.522Z,1.93
2022-11-04T09:29:19.610Z,1.90
2022-11-04T09:31:50.135Z,1.77
2022-11-04T09:34:18.387Z,1.77
2022-11-04T09:36:47.934Z,1.80
2022-11-04T09:39:16.000Z,1.33
2022-11-04T09:42:11.670Z,2.10
2022-11-04T09:45:19.398Z,1.57
2022-11-04T09:47:39.035Z,1.50
2022-11-04T09:50:11.797Z,1.67
2022-11-04T09:52:47.013Z,2.07
2022-11-04T09:55:21.618Z,1.97
2022-11-04T09:57:56.084Z,1.90
2022-11-04T10:00:23.457Z,2.07
2022-11-04T10:03:00.748Z,2.20
2022-11-04T10:05:40.448Z,2.17
2022-11-04T10:08:33.874Z,2.63
2022-11-04T10:11:12.676Z,2.47
2022-11-04T10:13:54.955Z,2.10
2022-11-04T10:16:39.397Z,2.10
2022-11-04T10:19:25.360Z,2.40
2022-11-04T10:22:03.846Z,1.97
2022-11-04T10:24:41.014Z,3.93
2022-11-04T10:27:13.553Z,3.33
2022-11-04T10:29:44.479Z,2.40
2022-11-04T10:32:22.040Z,2.17
2022-11-04T10:34:53.279Z,1.77
2022-11-04T10:37:20.329Z,1.97
2022-11-04T10:39:48.978Z,1.80
2022-11-04T10:42:21.447Z,2.07
2022-11-04T10:44:50.905Z,2.47
2022-11-04T10:47:28.482Z,1.90
2022-11-04T10:50:30.913Z,1.80
2022-11-04T10:53:18.336Z,2.07
2022-11-04T10:56:00.283Z,1.93
2022-11-04T10:58:33.016Z,1.50
2022-11-04T11:01:20.875Z,1.40
2022-11-04T11:03:49.273Z,1.37
2022-11-04T11:06:24.507Z,1.30
2022-11-04T11:08:53.548Z,1.30
2022-11-04T11:14:31.168Z,1.33
2022-11-04T11:17:18.452Z,1.50
2022-11-04T11:19:48.413Z,1.40
2022-11-04T11:22:31.715Z,1.70
2022-11-04T11:25:15.170Z,1.30
2022-11-04T11:27:47.878Z,1.50
2022-11-04T11:30:28.810Z,1.93
2022-11-04T11:33:01.743Z,1.50
2022-11-04T11:35:32.923Z,1.37
2022-11-04T11:38:04.053Z,1.60
2022-11-04T11:40:34.771Z,1.63
2022-11-04T11:43:03.494Z,1.47
2022-11-04T11:45:32.725Z,1.37
2022-11-04T11:47:59.620Z,1.30
2022-11-04T11:50:35.613Z,1.23
2022-11-04T11:53:16.109Z,1.67
2022-11-04T11:55:49.900Z,1.20
2022-11-04T12:01:23.843Z,1.13
2022-11-04T12:09:47.607Z,1.40
2022-11-04T12:12:23.332Z,1.10
2022-11-04T12:15:05.446Z,1.43
2022-11-04T12:17:50.485Z,1.10
2022-11-04T12:20:37.064Z,1.83
2022-11-04T12:23:17.573Z,1.00
2022-11-04T12:25:54.862Z,1.13
2022-11-04T12:28:28.573Z,1.20
2022-11-04T12:31:08.507Z,1.30
2022-11-04T12:33:43.813Z,1.40
2022-11-04T12:36:24.420Z,1.37
2022-11-04T12:39:09.374Z,1.20
2022-11-04T12:42:18.879Z,1.10
2022-11-04T12:44:38.722Z,1.30
2022-11-04T12:47:18.076Z,1.33
2022-11-04T12:50:04.338Z,1.20
2022-11-04T12:52:43.631Z,1.27
2022-11-04T12:55:29.030Z,0.90
2022-11-04T12:58:02.046Z,1.00
2022-11-04T13:00:31.203Z,1.27
2022-11-04T13:03:04.404Z,1.10
2022-11-04T13:05:39.567Z,1.07
2022-11-04T13:08:16.219Z,0.90
2022-11-04T13:10:49.305Z,1.57
2022-11-04T13:13:18.464Z,1.37
2022-11-04T13:15:51.147Z,1.10
2022-11-04T13:18:20.491Z,1.27
2022-11-04T13:20:53.419Z,1.07
2022-11-04T13:23:26.165Z,1.10
2022-11-04T13:25:54.398Z,1.30
2022-11-04T13:28:22.894Z,1.10
2022-11-04T13:30:59.548Z,1.30
2022-11-04T13:33:35.544Z,1.90
2022-11-04T13:36:13.596Z,1.40
2022-11-04T13:38:44.665Z,1.20
2022-11-04T13:41:27.897Z,1.40
2022-11-04T13:43:56.916Z,1.10
2022-11-04T13:46:30.161Z,1.00
2022-11-04T13:49:03.947Z,0.87
2022-11-04T13:51:38.158Z,0.80
2022-11-04T13:54:06.392Z,1.07
2022-11-04T13:56:35.663Z,1.17
2022-11-04T13:59:18.690Z,1.00
2022-11-04T14:01:46.304Z,2.37
2022-11-04T14:04:27.595Z,1.30
2022-11-04T14:06:58.489Z,1.50
2022-11-04T14:09:49.373Z,1.10
2022-11-04T14:12:35.526Z,1.20
2022-11-04T14:15:11.550Z,1.20
2022-11-04T14:17:58.196Z,1.10
2022-11-04T14:20:27.065Z,1.33
2022-11-04T14:22:57.324Z,0.90
2022-11-04T14:25:28.437Z,1.07
2022-11-04T14:27:56.865Z,0.90
2022-11-04T14:30:33.975Z,1.50
2022-11-04T14:33:04.368Z,1.40
2022-11-04T14:35:32.465Z,1.00
2022-11-04T14:38:19.734Z,1.17
2022-11-04T14:40:50.357Z,1.13
2022-11-04T14:43:31.318Z,1.33
2022-11-04T14:46:01.076Z,1.80
2022-11-04T14:48:31.438Z,2.07
2022-11-04T14:50:59.124Z,1.17
2022-11-04T14:53:32.491Z,1.20
2022-11-04T14:56:16.727Z,1.00
2022-11-04T14:58:56.778Z,1.80
2022-11-04T15:01:26.529Z,1.23
2022-11-04T15:04:13.618Z,1.47
2022-11-04T15:06:54.499Z,1.17
2022-11-04T15:09:25.781Z,1.30
2022-11-04T15:12:20.516Z,1.10
2022-11-04T15:14:47.503Z,1.90
2022-11-04T15:17:20.133Z,1.20
2022-11-04T15:19:51.117Z,1.20
2022-11-04T15:22:18.992Z,1.53
2022-11-04T15:24:47.381Z,1.40
2022-11-04T15:27:17.128Z,1.60
2022-11-04T15:29:54.057Z,1.80
2022-11-04T15:32:20.988Z,1.43
2022-11-04T15:34:48.153Z,1.50
2022-11-04T15:37:17.140Z,1.70
2022-11-04T15:39:48.096Z,1.40
2022-11-04T15:42:40.334Z,3.90
2022-11-04T15:45:37.319Z,1.30
2022-11-04T15:48:27.656Z,1.00
2022-11-04T15:51:14.711Z,1.60
2022-11-04T15:53:54.884Z,1.17
2022-11-04T15:56:27.037Z,1.27
2022-11-04T15:58:56.354Z,1.40
2022-11-04T16:01:23.830Z,1.10
2022-11-04T16:03:53.178Z,1.80
2022-11-04T16:06:34.406Z,2.03
2022-11-04T16:09:04.135Z,1.93
2022-11-04T16:11:32.499Z,1.63
2022-11-04T16:14:21.178Z,2.00
2022-11-04T16:16:50.667Z,1.37
2022-11-04T16:19:23.264Z,1.90
2022-11-04T16:21:59.885Z,1.30
2022-11-04T16:24:29.715Z,1.60
2022-11-04T16:26:57.980Z,1.70
2022-11-04T16:29:28.777Z,1.10
2022-11-04T16:32:08.149Z,1.70
2022-11-04T16:34:35.450Z,1.60
2022-11-04T16:37:02.916Z,3.43
2022-11-04T16:39:29.940Z,3.03
2022-11-04T16:41:58.809Z,3.50
2022-11-04T16:44:26.465Z,3.33
2022-11-04T16:46:53.991Z,2.60
2022-11-04T16:49:21.949Z,1.90
2022-11-04T16:51:53.783Z,1.50
2022-11-04T16:54:20.645Z,1.07
2022-11-04T16:56:47.767Z,1.13
2022-11-04T16:59:16.015Z,1.40
2022-11-04T17:01:43.107Z,1.47
2022-11-04T17:04:10.255Z,1.23
2022-11-04T17:06:37.605Z,1.53
2022-11-04T17:09:07.182Z,1.00
2022-11-04T17:11:34.263Z,1.40
2022-11-04T17:14:01.126Z,1.30
2022-11-04T17:16:30.117Z,1.83
2022-11-04T17:18:57.041Z,1.40
2022-11-04T17:21:24.216Z,1.07
2022-11-04T17:23:51.758Z,1.30
2022-11-04T17:26:18.739Z,1.43
2022-11-04T17:28:45.770Z,1.43
2022-11-04T17:31:18.513Z,1.50
2022-11-04T17:33:47.232Z,1.50
2022-11-04T17:36:18.213Z,1.70
2022-11-04T17:38:45.582Z,2.10
2022-11-04T17:41:31.272Z,2.20
2022-11-04T17:44:00.896Z,3.03
2022-11-04T17:46:34.033Z,3.07
2022-11-04T17:49:04.076Z,3.17
2022-11-04T17:51:31.880Z,3.17
2022-11-04T17:53:58.999Z,3.07
2022-11-04T17:56:26.504Z,3.67
2022-11-04T17:58:54.027Z,3.40
2022-11-04T18:01:23.056Z,3.90
2022-11-04T18:03:52.435Z,3.83
2022-11-04T18:06:21.839Z,4.20
2022-11-04T18:08:48.895Z,3.60
2022-11-04T18:11:34.884Z,3.80
2022-11-04T18:14:02.663Z,3.40
2022-11-04T18:16:29.780Z,4.40
2022-11-04T18:18:58.193Z,3.63
2022-11-04T18:21:26.937Z,3.53
2022-11-04T18:23:55.490Z,3.90
2022-11-04T18:26:23.230Z,4.03
2022-11-04T18:28:51.065Z,3.00
2022-11-04T18:31:24.437Z,2.57
2022-11-04T18:33:51.413Z,2.10
2022-11-04T18:36:18.665Z,2.43
2022-11-04T18:38:47.198Z,1.90
2022-11-04T18:41:14.469Z,2.30
2022-11-04T18:43:41.518Z,2.83
2022-11-04T18:46:09.309Z,2.63
2022-11-04T18:48:37.382Z,3.00
2022-11-04T18:51:07.582Z,2.97
2022-11-04T18:53:34.410Z,2.90
2022-11-04T18:56:08.439Z,3.13
2022-11-04T18:58:37.284Z,3.53
2022-11-04T19:01:08.480Z,3.43
2022-11-04T19:03:36.230Z,4.20
2022-11-04T19:06:07.098Z,3.37
2022-11-04T19:08:34.588Z,3.37
2022-11-04T19:11:02.687Z,3.30
2022-11-04T19:13:30.823Z,3.10
2022-11-04T19:16:05.574Z,3.00
2022-11-04T19:18:32.744Z,3.10
2022-11-04T19:21:04.427Z,3.17
2022-11-04T19:23:32.040Z,3.43
2022-11-04T19:26:02.210Z,3.17
2022-11-04T19:28:44.591Z,3.03
2022-11-04T19:31:17.065Z,2.90
2022-11-04T19:33:44.839Z,3.07
2022-11-04T19:36:13.442Z,3.13
2022-11-04T19:38:40.968Z,3.27
2022-11-04T19:41:31.052Z,3.27
2022-11-04T19:44:01.331Z,2.77
2022-11-04T19:46:28.499Z,3.60
2022-11-04T19:48:56.546Z,5.30
2022-11-04T19:51:26.646Z,3.67
2022-11-04T19:53:57.666Z,3.90
2022-11-04T19:56:25.383Z,3.93
2022-11-04T19:58:52.529Z,3.53
2022-11-04T20:01:21.624Z,4.17
2022-11-04T20:03:49.373Z,3.50
2022-11-04T20:06:16.762Z,4.17
2022-11-04T20:08:45.449Z,3.57
2022-11-04T20:11:13.691Z,4.07
2022-11-04T20:13:52.582Z,3.87
2022-11-04T20:16:23.522Z,3.50
2022-11-04T20:18:52.482Z,3.70
2022-11-04T20:21:21.773Z,3.60
2022-11-04T20:23:48.924Z,6.77
2022-11-04T20:26:20.649Z,7.03
2022-11-04T20:28:47.982Z,5.93
2022-11-04T20:31:17.974Z,7.40
2022-11-04T20:33:47.315Z,6.20
2022-11-04T20:36:16.203Z,6.30
2022-11-04T20:38:43.429Z,5.23
2022-11-04T20:41:15.499Z,4.57
2022-11-04T20:43:42.417Z,5.57
2022-11-04T20:46:11.710Z,6.07
2022-11-04T20:48:39.318Z,5.37
2022-11-04T20:51:09.369Z,5.57
2022-11-04T20:53:36.342Z,7.77
2022-11-04T20:56:07.394Z,6.53
2022-11-04T20:58:35.250Z,5.83
2022-11-04T21:01:03.868Z,6.40
2022-11-04T21:03:30.889Z,5.57
2022-11-04T21:05:58.300Z,4.97
2022-11-04T21:08:26.740Z,5.87
2022-11-04T21:10:55.425Z,5.83
2022-11-04T21:13:22.891Z,5.30
2022-11-04T21:15:54.996Z,4.83
2022-11-04T21:18:22.320Z,5.83
2022-11-04T21:20:49.710Z,5.37
2022-11-04T21:23:17.796Z,6.13
2022-11-04T21:25:48.256Z,6.07
2022-11-04T21:28:15.856Z,6.60
2022-11-04T21:30:44.816Z,6.67
2022-11-04T21:33:11.843Z,6.30
2022-11-04T21:35:40.336Z,6.00
2022-11-04T21:38:08.964Z,5.60
2022-11-04T21:40:36.851Z,6.27
2022-11-04T21:43:05.261Z,4.70
2022-11-04T21:45:33.745Z,5.33
2022-11-04T21:48:01.020Z,5.00
2022-11-04T21:50:28.100Z,5.73
2022-11-04T21:52:55.065Z,4.80
2022-11-04T21:55:21.950Z,5.70
2022-11-04T21:57:49.058Z,3.93
2022-11-04T22:00:18.052Z,4.30
2022-11-04T22:02:50.750Z,4.50
2022-11-04T22:05:18.628Z,4.90
2022-11-04T22:08:03.833Z,4.37
2022-11-04T22:10:30.876Z,5.27
2022-11-04T22:12:58.027Z,5.20
2022-11-04T22:15:45.006Z,5.50
2022-11-04T22:18:11.917Z,5.00
2022-11-04T22:20:38.785Z,5.10
2022-11-04T22:23:05.620Z,6.23
2022-11-04T22:25:32.566Z,5.20
2022-11-04T22:27:59.421Z,4.40
2022-11-04T22:30:27.671Z,3.97
2022-11-04T22:32:57.598Z,3.70
2022-11-04T22:35:24.430Z,3.37
2022-11-04T22:37:51.256Z,3.07
2022-11-04T22:40:18.565Z,2.80
2022-11-04T22:42:47.112Z,2.87
2022-11-04T22:45:16.873Z,2.77
2022-11-04T22:47:45.240Z,2.43
2022-11-04T22:50:12.095Z,2.40
2022-11-04T22:52:38.933Z,1.83
2022-11-04T22:55:06.377Z,1.87
2022-11-04T22:57:33.200Z,1.83
2022-11-04T23:00:01.417Z,1.73
2022-11-04T23:02:32.439Z,1.53
2022-11-04T23:05:05.193Z,1.53
2022-11-04T23:07:32.061Z,1.90
2022-11-04T23:10:17.520Z,1.73
2022-11-04T23:13:03.145Z,2.10
2022-11-04T23:15:59.385Z,1.93
2022-11-04T23:18:44.501Z,2.00
2022-11-04T23:21:34.888Z,1.80
2022-11-04T23:24:20.120Z,2.10
2022-11-04T23:26:47.647Z,2.17
2022-11-04T23:29:34.809Z,2.67
2022-11-04T23:32:01.897Z,2.43
2022-11-04T23:34:47.135Z,2.63
2022-11-04T23:37:15.511Z,2.73
2022-11-04T23:39:43.751Z,2.57
2022-11-04T23:42:18.203Z,2.10
2022-11-04T23:45:05.013Z,2.33
2022-11-04T23:47:52.133Z,2.43
2022-11-04T23:50:38.262Z,2.23
2022-11-04T23:53:25.342Z,2.20
2022-11-04T23:56:12.260Z,2.30
2022-11-04T23:58:57.794Z,2.50
